sensor_id;sensor_type;location;lat;lon;timestamp;P1;durP1;ratioP1;P2;durP2;ratioP2
41201;SDS011;26936;50.524;8.684;2023-08-17T00:02:10;5.70;;;2.65;;
41201;SDS011;26936;50.524;8.684;2023-08-17T00:04:35;5.80;;;2.75;;
41201;SDS011;26936;50.524;8.684;2023-08-17T00:07:00;7.00;;;2.67;;
41201;SDS011;26936;50.524;8.684;2023-08-17T00:09:26;9.63;;;3.05;;
41201;SDS011;26936;50.524;8.684;2023-08-17T00:11:51;8.35;;;3.03;;
41201;SDS011;26936;50.524;8.684;2023-08-17T00:14:16;7.68;;;2.78;;
41201;SDS011;26936;50.524;8.684;2023-08-17T00:16:42;5.63;;;3.22;;
41201;SDS011;26936;50.524;8.684;2023-08-17T00:19:07;11.43;;;3.17;;
41201;SDS011;26936;50.524;8.684;2023-08-17T00:21:32;8.10;;;3.33;;
41201;SDS011;26936;50.524;8.684;2023-08-17T00:23:58;10.32;;;4.13;;
41201;SDS011;26936;50.524;8.684;2023-08-17T00:26:23;10.55;;;4.20;;
41201;SDS011;26936;50.524;8.684;2023-08-17T00:28:48;6.73;;;4.20;;
41201;SDS011;26936;50.524;8.684;2023-08-17T00:31:13;10.30;;;4.47;;
41201;SDS011;26936;50.524;8.684;2023-08-17T00:33:39;11.63;;;5.13;;
41201;SDS011;26936;50.524;8.684;2023-08-17T00:36:04;14.68;;;5.50;;
41201;SDS011;26936;50.524;8.684;2023-08-17T00:38:30;12.63;;;4.82;;
41201;SDS011;26936;50.524;8.684;2023-08-17T00:40:58;8.30;;;4.20;;
41201;SDS011;26936;50.524;8.684;2023-08-17T00:43:26;9.70;;;4.05;;
41201;SDS011;26936;50.524;8.684;2023-08-17T00:45:59;13.18;;;4.75;;
41201;SDS011;26936;50.524;8.684;2023-08-17T00:48:27;14.52;;;4.40;;
41201;SDS011;26936;50.524;8.684;2023-08-17T00:51:03;13.15;;;4.20;;
41201;SDS011;26936;50.524;8.684;2023-08-17T00:53:37;7.03;;;4.30;;
41201;SDS011;26936;50.524;8.684;2023-08-17T00:56:11;10.27;;;4.25;;
41201;SDS011;26936;50.524;8.684;2023-08-17T00:58:45;9.10;;;4.45;;
41201;SDS011;26936;50.524;8.684;2023-08-17T01:01:22;16.63;;;5.80;;
41201;SDS011;26936;50.524;8.684;2023-08-17T01:03:57;12.65;;;5.00;;
41201;SDS011;26936;50.524;8.684;2023-08-17T01:06:25;19.50;;;7.05;;
41201;SDS011;26936;50.524;8.684;2023-08-17T01:08:54;11.20;;;5.60;;
41201;SDS011;26936;50.524;8.684;2023-08-17T01:11:37;12.57;;;5.10;;
41201;SDS011;26936;50.524;8.684;2023-08-17T01:15:04;14.20;;;6.00;;
41201;SDS011;26936;50.524;8.684;2023-08-17T01:48:34;17.27;;;7.07;;
41201;SDS011;26936;50.524;8.684;2023-08-17T01:51:03;23.02;;;7.95;;
41201;SDS011;26936;50.524;8.684;2023-08-17T02:19:44;14.23;;;6.72;;
41201;SDS011;26936;50.524;8.684;2023-08-17T02:22:19;16.67;;;7.03;;
41201;SDS011;26936;50.524;8.684;2023-08-17T02:25:02;13.70;;;4.88;;
41201;SDS011;26936;50.524;8.684;2023-08-17T02:27:42;12.70;;;5.03;;
41201;SDS011;26936;50.524;8.684;2023-08-17T02:30:21;12.57;;;5.30;;
41201;SDS011;26936;50.524;8.684;2023-08-17T02:33:01;9.13;;;4.15;;
41201;SDS011;26936;50.524;8.684;2023-08-17T02:35:50;12.10;;;4.45;;
41201;SDS011;26936;50.524;8.684;2023-08-17T02:41:15;10.00;;;4.32;;
41201;SDS011;26936;50.524;8.684;2023-08-17T02:43:46;9.07;;;3.90;;
41201;SDS011;26936;50.524;8.684;2023-08-17T02:46:12;7.53;;;4.05;;
41201;SDS011;26936;50.524;8.684;2023-08-17T02:48:40;9.75;;;3.85;;
41201;SDS011;26936;50.524;8.684;2023-08-17T02:51:08;6.47;;;3.13;;
41201;SDS011;26936;50.524;8.684;2023-08-17T02:53:43;7.60;;;3.28;;
41201;SDS011;26936;50.524;8.684;2023-08-17T02:56:19;5.53;;;2.63;;
41201;SDS011;26936;50.524;8.684;2023-08-17T02:58:52;7.15;;;3.00;;
41201;SDS011;26936;50.524;8.684;2023-08-17T03:01:51;7.53;;;2.95;;
41201;SDS011;26936;50.524;8.684;2023-08-17T03:04:28;6.28;;;3.00;;
41201;SDS011;26936;50.524;8.684;2023-08-17T04:19:12;31.95;;;12.30;;
41201;SDS011;26936;50.524;8.684;2023-08-17T04:31:40;21.30;;;10.65;;
41201;SDS011;26936;50.524;8.684;2023-08-17T04:34:06;22.73;;;11.35;;
41201;SDS011;26936;50.524;8.684;2023-08-17T04:36:31;18.70;;;11.30;;
41201;SDS011;26936;50.524;8.684;2023-08-17T04:38:57;18.20;;;10.38;;
41201;SDS011;26936;50.524;8.684;2023-08-17T04:41:22;20.55;;;9.80;;
41201;SDS011;26936;50.524;8.684;2023-08-17T04:43:47;20.50;;;11.23;;
41201;SDS011;26936;50.524;8.684;2023-08-17T04:46:14;20.23;;;12.02;;
41201;SDS011;26936;50.524;8.684;2023-08-17T04:48:39;20.83;;;12.48;;
41201;SDS011;26936;50.524;8.684;2023-08-17T04:51:05;18.00;;;11.70;;
41201;SDS011;26936;50.524;8.684;2023-08-17T04:53:30;17.85;;;11.48;;
41201;SDS011;26936;50.524;8.684;2023-08-17T04:55:55;21.90;;;12.35;;
41201;SDS011;26936;50.524;8.684;2023-08-17T04:58:20;20.40;;;12.20;;
41201;SDS011;26936;50.524;8.684;2023-08-17T05:00:47;25.75;;;12.85;;
41201;SDS011;26936;50.524;8.684;2023-08-17T05:03:13;25.60;;;14.30;;
41201;SDS011;26936;50.524;8.684;2023-08-17T05:05:38;22.10;;;11.30;;
41201;SDS011;26936;50.524;8.684;2023-08-17T05:08:03;19.80;;;11.23;;
41201;SDS011;26936;50.524;8.684;2023-08-17T05:10:29;18.58;;;11.00;;
41201;SDS011;26936;50.524;8.684;2023-08-17T05:12:54;16.70;;;10.55;;
41201;SDS011;26936;50.524;8.684;2023-08-17T05:15:20;17.75;;;11.30;;
41201;SDS011;26936;50.524;8.684;2023-08-17T05:17:45;18.55;;;11.10;;
41201;SDS011;26936;50.524;8.684;2023-08-17T05:20:11;17.42;;;10.48;;
41201;SDS011;26936;50.524;8.684;2023-08-17T05:22:37;21.38;;;12.10;;
41201;SDS011;26936;50.524;8.684;2023-08-17T05:25:03;23.80;;;13.50;;
41201;SDS011;26936;50.524;8.684;2023-08-17T05:27:29;22.58;;;14.10;;
41201;SDS011;26936;50.524;8.684;2023-08-17T05:29:54;24.45;;;13.38;;
41201;SDS011;26936;50.524;8.684;2023-08-17T05:32:19;18.92;;;10.90;;
41201;SDS011;26936;50.524;8.684;2023-08-17T05:34:46;18.98;;;10.48;;
41201;SDS011;26936;50.524;8.684;2023-08-17T05:37:12;21.13;;;11.88;;
41201;SDS011;26936;50.524;8.684;2023-08-17T05:39:37;19.58;;;11.18;;
41201;SDS011;26936;50.524;8.684;2023-08-17T05:42:03;18.63;;;10.70;;
41201;SDS011;26936;50.524;8.684;2023-08-17T05:44:28;16.63;;;9.80;;
41201;SDS011;26936;50.524;8.684;2023-08-17T05:46:53;18.40;;;10.45;;
41201;SDS011;26936;50.524;8.684;2023-08-17T05:49:19;16.35;;;10.23;;
41201;SDS011;26936;50.524;8.684;2023-08-17T05:51:44;15.87;;;10.40;;
41201;SDS011;26936;50.524;8.684;2023-08-17T05:54:09;18.17;;;10.53;;
41201;SDS011;26936;50.524;8.684;2023-08-17T05:56:34;15.77;;;9.82;;
41201;SDS011;26936;50.524;8.684;2023-08-17T05:59:00;17.40;;;9.80;;
41201;SDS011;26936;50.524;8.684;2023-08-17T06:01:25;20.90;;;11.52;;
41201;SDS011;26936;50.524;8.684;2023-08-17T06:03:51;15.77;;;10.15;;
41201;SDS011;26936;50.524;8.684;2023-08-17T06:06:16;18.80;;;11.20;;
41201;SDS011;26936;50.524;8.684;2023-08-17T06:08:41;19.55;;;11.52;;
41201;SDS011;26936;50.524;8.684;2023-08-17T06:11:07;19.30;;;10.88;;
41201;SDS011;26936;50.524;8.684;2023-08-17T06:13:32;17.65;;;10.63;;
41201;SDS011;26936;50.524;8.684;2023-08-17T06:15:57;21.00;;;10.98;;
41201;SDS011;26936;50.524;8.684;2023-08-17T06:18:23;21.83;;;10.90;;
41201;SDS011;26936;50.524;8.684;2023-08-17T06:20:48;47.33;;;11.67;;
41201;SDS011;26936;50.524;8.684;2023-08-17T06:23:16;20.25;;;10.68;;
41201;SDS011;26936;50.524;8.684;2023-08-17T06:25:42;33.58;;;11.20;;
41201;SDS011;26936;50.524;8.684;2023-08-17T06:28:07;20.40;;;10.67;;
41201;SDS011;26936;50.524;8.684;2023-08-17T06:30:32;61.78;;;12.75;;
41201;SDS011;26936;50.524;8.684;2023-08-17T06:32:58;30.08;;;10.90;;
41201;SDS011;26936;50.524;8.684;2023-08-17T06:35:24;17.10;;;9.80;;
41201;SDS011;26936;50.524;8.684;2023-08-17T06:37:49;23.85;;;11.75;;
41201;SDS011;26936;50.524;8.684;2023-08-17T06:40:16;24.63;;;12.15;;
41201;SDS011;26936;50.524;8.684;2023-08-17T06:42:41;20.87;;;11.20;;
41201;SDS011;26936;50.524;8.684;2023-08-17T06:45:07;20.90;;;11.38;;
41201;SDS011;26936;50.524;8.684;2023-08-17T06:47:32;19.30;;;11.93;;
41201;SDS011;26936;50.524;8.684;2023-08-17T06:49:58;17.33;;;11.00;;
41201;SDS011;26936;50.524;8.684;2023-08-17T06:52:23;21.63;;;12.82;;
41201;SDS011;26936;50.524;8.684;2023-08-17T06:54:49;21.58;;;12.85;;
41201;SDS011;26936;50.524;8.684;2023-08-17T06:57:15;19.10;;;11.77;;
41201;SDS011;26936;50.524;8.684;2023-08-17T06:59:40;17.65;;;11.45;;
41201;SDS011;26936;50.524;8.684;2023-08-17T07:02:05;22.52;;;13.07;;
41201;SDS011;26936;50.524;8.684;2023-08-17T07:04:31;17.53;;;11.23;;
41201;SDS011;26936;50.524;8.684;2023-08-17T07:06:56;19.98;;;12.45;;
41201;SDS011;26936;50.524;8.684;2023-08-17T07:09:22;18.65;;;11.60;;
41201;SDS011;26936;50.524;8.684;2023-08-17T07:11:47;15.07;;;10.45;;
41201;SDS011;26936;50.524;8.684;2023-08-17T07:14:12;18.95;;;11.35;;
41201;SDS011;26936;50.524;8.684;2023-08-17T07:16:38;17.90;;;10.97;;
41201;SDS011;26936;50.524;8.684;2023-08-17T07:19:03;15.07;;;10.40;;
41201;SDS011;26936;50.524;8.684;2023-08-17T07:21:29;15.73;;;10.40;;
41201;SDS011;26936;50.524;8.684;2023-08-17T07:23:54;16.65;;;9.93;;
41201;SDS011;26936;50.524;8.684;2023-08-17T07:26:20;18.50;;;12.18;;
41201;SDS011;26936;50.524;8.684;2023-08-17T07:28:46;18.70;;;11.85;;
41201;SDS011;26936;50.524;8.684;2023-08-17T07:31:12;22.65;;;13.30;;
41201;SDS011;26936;50.524;8.684;2023-08-17T07:33:38;21.10;;;13.70;;
41201;SDS011;26936;50.524;8.684;2023-08-17T07:36:03;20.25;;;11.43;;
41201;SDS011;26936;50.524;8.684;2023-08-17T07:38:29;15.60;;;8.25;;
41201;SDS011;26936;50.524;8.684;2023-08-17T07:40:55;13.00;;;9.50;;
41201;SDS011;26936;50.524;8.684;2023-08-17T07:43:20;13.02;;;9.38;;
41201;SDS011;26936;50.524;8.684;2023-08-17T07:45:46;11.65;;;8.32;;
41201;SDS011;26936;50.524;8.684;2023-08-17T07:48:17;12.05;;;8.30;;
41201;SDS011;26936;50.524;8.684;2023-08-17T07:50:42;12.50;;;9.80;;
41201;SDS011;26936;50.524;8.684;2023-08-17T07:53:07;11.80;;;9.13;;
41201;SDS011;26936;50.524;8.684;2023-08-17T07:55:33;11.95;;;9.00;;
41201;SDS011;26936;50.524;8.684;2023-08-17T07:57:58;13.38;;;8.80;;
41201;SDS011;26936;50.524;8.684;2023-08-17T08:00:23;12.57;;;9.90;;
41201;SDS011;26936;50.524;8.684;2023-08-17T08:02:49;12.13;;;9.73;;
41201;SDS011;26936;50.524;8.684;2023-08-17T08:05:14;13.50;;;9.73;;
41201;SDS011;26936;50.524;8.684;2023-08-17T08:07:39;11.77;;;9.13;;
41201;SDS011;26936;50.524;8.684;2023-08-17T08:10:06;12.57;;;9.00;;
41201;SDS011;26936;50.524;8.684;2023-08-17T08:12:31;14.68;;;9.48;;
41201;SDS011;26936;50.524;8.684;2023-08-17T08:14:56;11.70;;;8.83;;
41201;SDS011;26936;50.524;8.684;2023-08-17T08:17:22;11.95;;;9.45;;
41201;SDS011;26936;50.524;8.684;2023-08-17T08:19:47;16.23;;;10.55;;
41201;SDS011;26936;50.524;8.684;2023-08-17T08:22:12;14.27;;;10.10;;
41201;SDS011;26936;50.524;8.684;2023-08-17T08:24:38;13.10;;;9.57;;
41201;SDS011;26936;50.524;8.684;2023-08-17T08:27:06;13.38;;;9.82;;
41201;SDS011;26936;50.524;8.684;2023-08-17T08:29:31;14.38;;;9.88;;
41201;SDS011;26936;50.524;8.684;2023-08-17T08:31:56;13.65;;;8.70;;
41201;SDS011;26936;50.524;8.684;2023-08-17T08:34:24;9.90;;;6.28;;
41201;SDS011;26936;50.524;8.684;2023-08-17T08:36:49;7.18;;;5.60;;
41201;SDS011;26936;50.524;8.684;2023-08-17T08:39:15;7.45;;;5.78;;
41201;SDS011;26936;50.524;8.684;2023-08-17T08:41:40;7.87;;;5.80;;
41201;SDS011;26936;50.524;8.684;2023-08-17T08:44:05;7.20;;;6.10;;
41201;SDS011;26936;50.524;8.684;2023-08-17T08:46:31;6.68;;;5.55;;
41201;SDS011;26936;50.524;8.684;2023-08-17T08:48:58;6.80;;;5.20;;
41201;SDS011;26936;50.524;8.684;2023-08-17T08:51:27;5.15;;;4.30;;
41201;SDS011;26936;50.524;8.684;2023-08-17T08:54:00;4.70;;;4.00;;
41201;SDS011;26936;50.524;8.684;2023-08-17T08:56:33;5.40;;;4.07;;
41201;SDS011;26936;50.524;8.684;2023-08-17T08:59:02;4.85;;;3.47;;
41201;SDS011;26936;50.524;8.684;2023-08-17T09:01:30;4.72;;;3.67;;
41201;SDS011;26936;50.524;8.684;2023-08-17T09:03:58;5.47;;;4.38;;
41201;SDS011;26936;50.524;8.684;2023-08-17T09:06:24;4.93;;;3.67;;
41201;SDS011;26936;50.524;8.684;2023-08-17T09:08:51;4.93;;;4.05;;
41201;SDS011;26936;50.524;8.684;2023-08-17T09:11:17;6.85;;;3.92;;
41201;SDS011;26936;50.524;8.684;2023-08-17T09:13:42;7.05;;;5.10;;
41201;SDS011;26936;50.524;8.684;2023-08-17T09:16:07;6.88;;;5.45;;
41201;SDS011;26936;50.524;8.684;2023-08-17T09:18:33;6.47;;;4.63;;
41201;SDS011;26936;50.524;8.684;2023-08-17T09:21:00;6.47;;;5.05;;
41201;SDS011;26936;50.524;8.684;2023-08-17T09:23:25;5.63;;;5.03;;
41201;SDS011;26936;50.524;8.684;2023-08-17T09:25:50;8.03;;;5.40;;
41201;SDS011;26936;50.524;8.684;2023-08-17T09:28:23;6.40;;;4.90;;
41201;SDS011;26936;50.524;8.684;2023-08-17T09:33:29;5.85;;;4.47;;
41201;SDS011;26936;50.524;8.684;2023-08-17T09:35:56;4.97;;;3.47;;
41201;SDS011;26936;50.524;8.684;2023-08-17T09:38:23;4.70;;;3.97;;
41201;SDS011;26936;50.524;8.684;2023-08-17T09:40:49;5.80;;;4.43;;
41201;SDS011;26936;50.524;8.684;2023-08-17T09:43:15;7.10;;;4.65;;
41201;SDS011;26936;50.524;8.684;2023-08-17T09:45:42;6.28;;;4.82;;
41201;SDS011;26936;50.524;8.684;2023-08-17T09:48:10;6.38;;;4.90;;
41201;SDS011;26936;50.524;8.684;2023-08-17T09:50:42;6.38;;;4.85;;
41201;SDS011;26936;50.524;8.684;2023-08-17T09:53:11;6.85;;;5.00;;
41201;SDS011;26936;50.524;8.684;2023-08-17T09:55:41;6.15;;;3.90;;
41201;SDS011;26936;50.524;8.684;2023-08-17T09:58:08;6.72;;;4.28;;
41201;SDS011;26936;50.524;8.684;2023-08-17T10:00:34;4.57;;;3.70;;
41201;SDS011;26936;50.524;8.684;2023-08-17T10:03:03;6.13;;;4.38;;
41201;SDS011;26936;50.524;8.684;2023-08-17T10:05:30;5.93;;;4.10;;
41201;SDS011;26936;50.524;8.684;2023-08-17T10:08:00;5.85;;;4.80;;
41201;SDS011;26936;50.524;8.684;2023-08-17T10:10:28;6.05;;;4.20;;
41201;SDS011;26936;50.524;8.684;2023-08-17T10:13:04;5.95;;;4.22;;
41201;SDS011;26936;50.524;8.684;2023-08-17T10:15:37;5.75;;;4.47;;
41201;SDS011;26936;50.524;8.684;2023-08-17T10:18:15;4.80;;;4.00;;
41201;SDS011;26936;50.524;8.684;2023-08-17T10:20:58;4.78;;;3.65;;
41201;SDS011;26936;50.524;8.684;2023-08-17T10:23:27;4.68;;;3.60;;
41201;SDS011;26936;50.524;8.684;2023-08-17T10:25:53;5.32;;;3.67;;
41201;SDS011;26936;50.524;8.684;2023-08-17T10:28:22;5.15;;;3.47;;
41201;SDS011;26936;50.524;8.684;2023-08-17T10:30:49;4.65;;;3.55;;
41201;SDS011;26936;50.524;8.684;2023-08-17T10:33:15;3.85;;;3.35;;
41201;SDS011;26936;50.524;8.684;2023-08-17T10:35:42;4.75;;;3.42;;
41201;SDS011;26936;50.524;8.684;2023-08-17T10:38:11;4.00;;;2.65;;
41201;SDS011;26936;50.524;8.684;2023-08-17T10:40:39;4.07;;;2.90;;
41201;SDS011;26936;50.524;8.684;2023-08-17T10:43:06;4.47;;;3.53;;
41201;SDS011;26936;50.524;8.684;2023-08-17T10:45:37;3.70;;;3.00;;
41201;SDS011;26936;50.524;8.684;2023-08-17T10:51:01;4.13;;;3.20;;
41201;SDS011;26936;50.524;8.684;2023-08-17T10:53:33;4.88;;;3.35;;
41201;SDS011;26936;50.524;8.684;2023-08-17T10:56:12;3.97;;;3.10;;
41201;SDS011;26936;50.524;8.684;2023-08-17T10:58:38;3.88;;;3.15;;
41201;SDS011;26936;50.524;8.684;2023-08-17T11:01:04;3.20;;;2.88;;
41201;SDS011;26936;50.524;8.684;2023-08-17T11:03:30;3.58;;;3.10;;
41201;SDS011;26936;50.524;8.684;2023-08-17T11:05:56;4.55;;;3.30;;
41201;SDS011;26936;50.524;8.684;2023-08-17T11:08:23;3.40;;;3.00;;
41201;SDS011;26936;50.524;8.684;2023-08-17T11:13:39;4.78;;;3.25;;
41201;SDS011;26936;50.524;8.684;2023-08-17T11:16:06;3.15;;;2.38;;
41201;SDS011;26936;50.524;8.684;2023-08-17T11:18:32;3.55;;;2.70;;
41201;SDS011;26936;50.524;8.684;2023-08-17T11:20:58;3.90;;;2.42;;
41201;SDS011;26936;50.524;8.684;2023-08-17T11:23:24;3.50;;;2.60;;
41201;SDS011;26936;50.524;8.684;2023-08-17T11:25:53;2.85;;;2.50;;
41201;SDS011;26936;50.524;8.684;2023-08-17T11:28:19;3.92;;;2.72;;
41201;SDS011;26936;50.524;8.684;2023-08-17T11:30:55;5.13;;;2.50;;
41201;SDS011;26936;50.524;8.684;2023-08-17T11:33:34;3.83;;;2.88;;
41201;SDS011;26936;50.524;8.684;2023-08-17T11:36:01;3.40;;;2.80;;
41201;SDS011;26936;50.524;8.684;2023-08-17T11:38:35;3.33;;;2.78;;
41201;SDS011;26936;50.524;8.684;2023-08-17T11:41:02;5.38;;;2.70;;
41201;SDS011;26936;50.524;8.684;2023-08-17T11:43:28;3.13;;;2.83;;
41201;SDS011;26936;50.524;8.684;2023-08-17T11:45:55;4.97;;;2.38;;
41201;SDS011;26936;50.524;8.684;2023-08-17T11:48:21;3.38;;;2.67;;
41201;SDS011;26936;50.524;8.684;2023-08-17T11:50:47;3.97;;;2.80;;
41201;SDS011;26936;50.524;8.684;2023-08-17T11:53:13;3.55;;;2.63;;
41201;SDS011;26936;50.524;8.684;2023-08-17T11:55:39;5.35;;;2.78;;
41201;SDS011;26936;50.524;8.684;2023-08-17T11:58:04;4.18;;;2.88;;
41201;SDS011;26936;50.524;8.684;2023-08-17T12:00:34;3.33;;;2.67;;
41201;SDS011;26936;50.524;8.684;2023-08-17T12:03:01;4.70;;;2.83;;
41201;SDS011;26936;50.524;8.684;2023-08-17T12:05:28;4.05;;;2.58;;
41201;SDS011;26936;50.524;8.684;2023-08-17T12:07:56;4.07;;;2.70;;
41201;SDS011;26936;50.524;8.684;2023-08-17T12:10:22;5.38;;;2.75;;
41201;SDS011;26936;50.524;8.684;2023-08-17T12:12:47;4.47;;;3.00;;
41201;SDS011;26936;50.524;8.684;2023-08-17T12:15:13;7.75;;;2.70;;
41201;SDS011;26936;50.524;8.684;2023-08-17T12:17:43;3.10;;;2.70;;
41201;SDS011;26936;50.524;8.684;2023-08-17T12:20:15;2.92;;;2.58;;
41201;SDS011;26936;50.524;8.684;2023-08-17T12:22:44;3.97;;;2.70;;
41201;SDS011;26936;50.524;8.684;2023-08-17T12:25:11;5.07;;;2.45;;
41201;SDS011;26936;50.524;8.684;2023-08-17T12:27:36;3.85;;;2.33;;
41201;SDS011;26936;50.524;8.684;2023-08-17T12:30:01;2.58;;;2.35;;
41201;SDS011;26936;50.524;8.684;2023-08-17T12:32:27;2.80;;;2.47;;
41201;SDS011;26936;50.524;8.684;2023-08-17T12:34:52;2.53;;;2.07;;
41201;SDS011;26936;50.524;8.684;2023-08-17T12:37:18;5.68;;;2.20;;
41201;SDS011;26936;50.524;8.684;2023-08-17T12:39:48;4.28;;;2.50;;
41201;SDS011;26936;50.524;8.684;2023-08-17T12:42:13;3.80;;;2.50;;
41201;SDS011;26936;50.524;8.684;2023-08-17T12:44:39;3.30;;;2.75;;
41201;SDS011;26936;50.524;8.684;2023-08-17T12:47:05;4.72;;;2.38;;
41201;SDS011;26936;50.524;8.684;2023-08-17T12:49:30;3.38;;;2.42;;
41201;SDS011;26936;50.524;8.684;2023-08-17T12:51:56;2.93;;;2.57;;
41201;SDS011;26936;50.524;8.684;2023-08-17T12:54:21;4.90;;;2.33;;
41201;SDS011;26936;50.524;8.684;2023-08-17T12:56:46;2.67;;;2.13;;
41201;SDS011;26936;50.524;8.684;2023-08-17T12:59:12;3.93;;;2.30;;
41201;SDS011;26936;50.524;8.684;2023-08-17T13:01:37;4.40;;;2.33;;
41201;SDS011;26936;50.524;8.684;2023-08-17T13:04:03;3.38;;;2.58;;
41201;SDS011;26936;50.524;8.684;2023-08-17T13:06:29;3.30;;;2.42;;
41201;SDS011;26936;50.524;8.684;2023-08-17T13:08:54;2.95;;;2.35;;
41201;SDS011;26936;50.524;8.684;2023-08-17T13:11:19;6.07;;;2.50;;
41201;SDS011;26936;50.524;8.684;2023-08-17T13:13:44;3.20;;;2.40;;
41201;SDS011;26936;50.524;8.684;2023-08-17T13:16:10;2.75;;;2.22;;
41201;SDS011;26936;50.524;8.684;2023-08-17T13:18:38;3.55;;;2.50;;
41201;SDS011;26936;50.524;8.684;2023-08-17T13:21:03;2.93;;;2.27;;
41201;SDS011;26936;50.524;8.684;2023-08-17T13:23:29;2.42;;;2.13;;
41201;SDS011;26936;50.524;8.684;2023-08-17T13:25:54;2.80;;;2.30;;
41201;SDS011;26936;50.524;8.684;2023-08-17T13:28:20;2.70;;;2.28;;
41201;SDS011;26936;50.524;8.684;2023-08-17T13:30:45;3.15;;;2.40;;
41201;SDS011;26936;50.524;8.684;2023-08-17T13:33:11;2.47;;;2.28;;
41201;SDS011;26936;50.524;8.684;2023-08-17T13:35:37;3.92;;;2.30;;
41201;SDS011;26936;50.524;8.684;2023-08-17T13:38:03;2.30;;;2.05;;
41201;SDS011;26936;50.524;8.684;2023-08-17T13:40:29;2.88;;;2.10;;
41201;SDS011;26936;50.524;8.684;2023-08-17T13:42:55;3.25;;;2.08;;
41201;SDS011;26936;50.524;8.684;2023-08-17T13:45:20;3.08;;;1.83;;
41201;SDS011;26936;50.524;8.684;2023-08-17T13:47:45;4.28;;;1.60;;
41201;SDS011;26936;50.524;8.684;2023-08-17T13:50:11;1.70;;;1.48;;
41201;SDS011;26936;50.524;8.684;2023-08-17T13:52:36;2.72;;;1.70;;
41201;SDS011;26936;50.524;8.684;2023-08-17T13:55:01;2.88;;;1.52;;
41201;SDS011;26936;50.524;8.684;2023-08-17T13:57:27;2.65;;;1.60;;
41201;SDS011;26936;50.524;8.684;2023-08-17T13:59:52;2.92;;;1.42;;
41201;SDS011;26936;50.524;8.684;2023-08-17T14:02:18;1.43;;;1.30;;
41201;SDS011;26936;50.524;8.684;2023-08-17T14:04:44;2.15;;;1.30;;
41201;SDS011;26936;50.524;8.684;2023-08-17T14:07:09;3.27;;;1.33;;
41201;SDS011;26936;50.524;8.684;2023-08-17T14:09:35;2.17;;;1.40;;
41201;SDS011;26936;50.524;8.684;2023-08-17T14:12:00;1.70;;;1.38;;
41201;SDS011;26936;50.524;8.684;2023-08-17T14:14:26;2.72;;;1.52;;
41201;SDS011;26936;50.524;8.684;2023-08-17T14:16:52;1.95;;;1.40;;
41201;SDS011;26936;50.524;8.684;2023-08-17T14:19:17;2.35;;;1.25;;
41201;SDS011;26936;50.524;8.684;2023-08-17T14:21:42;3.03;;;1.30;;
41201;SDS011;26936;50.524;8.684;2023-08-17T14:24:07;1.60;;;1.10;;
41201;SDS011;26936;50.524;8.684;2023-08-17T14:26:33;2.58;;;1.30;;
41201;SDS011;26936;50.524;8.684;2023-08-17T14:28:59;1.85;;;1.30;;
41201;SDS011;26936;50.524;8.684;2023-08-17T14:31:24;1.97;;;1.07;;
41201;SDS011;26936;50.524;8.684;2023-08-17T14:33:49;2.83;;;1.30;;
41201;SDS011;26936;50.524;8.684;2023-08-17T14:36:15;1.27;;;1.10;;
41201;SDS011;26936;50.524;8.684;2023-08-17T14:38:40;1.73;;;1.15;;
41201;SDS011;26936;50.524;8.684;2023-08-17T14:41:06;1.77;;;1.10;;
41201;SDS011;26936;50.524;8.684;2023-08-17T14:43:33;2.08;;;1.05;;
41201;SDS011;26936;50.524;8.684;2023-08-17T14:45:58;1.55;;;1.15;;
41201;SDS011;26936;50.524;8.684;2023-08-17T14:48:24;2.22;;;1.38;;
41201;SDS011;26936;50.524;8.684;2023-08-17T14:50:49;2.83;;;1.30;;
41201;SDS011;26936;50.524;8.684;2023-08-17T14:53:14;1.57;;;1.20;;
41201;SDS011;26936;50.524;8.684;2023-08-17T14:55:41;2.43;;;1.10;;
41201;SDS011;26936;50.524;8.684;2023-08-17T14:58:06;1.55;;;1.20;;
41201;SDS011;26936;50.524;8.684;2023-08-17T15:00:34;1.92;;;1.40;;
41201;SDS011;26936;50.524;8.684;2023-08-17T15:03:00;1.40;;;1.30;;
41201;SDS011;26936;50.524;8.684;2023-08-17T15:05:25;1.50;;;1.05;;
41201;SDS011;26936;50.524;8.684;2023-08-17T15:07:51;1.83;;;1.40;;
41201;SDS011;26936;50.524;8.684;2023-08-17T15:10:17;1.35;;;1.10;;
41201;SDS011;26936;50.524;8.684;2023-08-17T15:12:42;2.17;;;1.33;;
41201;SDS011;26936;50.524;8.684;2023-08-17T15:15:08;2.08;;;1.27;;
41201;SDS011;26936;50.524;8.684;2023-08-17T15:17:33;2.15;;;1.30;;
41201;SDS011;26936;50.524;8.684;2023-08-17T15:19:59;1.67;;;1.38;;
41201;SDS011;26936;50.524;8.684;2023-08-17T15:22:25;2.50;;;1.25;;
41201;SDS011;26936;50.524;8.684;2023-08-17T15:24:51;1.30;;;1.08;;
41201;SDS011;26936;50.524;8.684;2023-08-17T15:27:16;1.45;;;1.35;;
41201;SDS011;26936;50.524;8.684;2023-08-17T15:29:42;1.38;;;1.27;;
41201;SDS011;26936;50.524;8.684;2023-08-17T15:32:07;2.20;;;1.23;;
41201;SDS011;26936;50.524;8.684;2023-08-17T15:34:33;3.15;;;1.60;;
41201;SDS011;26936;50.524;8.684;2023-08-17T15:36:58;2.73;;;1.30;;
41201;SDS011;26936;50.524;8.684;2023-08-17T15:39:24;2.28;;;1.23;;
41201;SDS011;26936;50.524;8.684;2023-08-17T15:41:49;1.40;;;1.30;;
41201;SDS011;26936;50.524;8.684;2023-08-17T15:44:14;1.70;;;1.40;;
41201;SDS011;26936;50.524;8.684;2023-08-17T15:46:40;1.98;;;1.50;;
41201;SDS011;26936;50.524;8.684;2023-08-17T15:49:05;1.30;;;1.20;;
41201;SDS011;26936;50.524;8.684;2023-08-17T15:51:30;2.03;;;1.00;;
41201;SDS011;26936;50.524;8.684;2023-08-17T15:53:56;1.35;;;1.25;;
41201;SDS011;26936;50.524;8.684;2023-08-17T15:56:21;1.98;;;1.20;;
41201;SDS011;26936;50.524;8.684;2023-08-17T15:58:47;1.67;;;1.30;;
41201;SDS011;26936;50.524;8.684;2023-08-17T16:01:13;1.30;;;1.13;;
41201;SDS011;26936;50.524;8.684;2023-08-17T16:03:39;2.70;;;1.20;;
41201;SDS011;26936;50.524;8.684;2023-08-17T16:06:05;1.65;;;1.42;;
41201;SDS011;26936;50.524;8.684;2023-08-17T16:08:30;1.33;;;1.20;;
41201;SDS011;26936;50.524;8.684;2023-08-17T16:10:56;3.30;;;1.45;;
41201;SDS011;26936;50.524;8.684;2023-08-17T16:13:21;1.67;;;1.30;;
41201;SDS011;26936;50.524;8.684;2023-08-17T16:15:46;3.08;;;1.10;;
41201;SDS011;26936;50.524;8.684;2023-08-17T16:18:12;1.38;;;1.27;;
41201;SDS011;26936;50.524;8.684;2023-08-17T16:20:37;1.70;;;1.03;;
41201;SDS011;26936;50.524;8.684;2023-08-17T16:23:02;3.30;;;1.30;;
41201;SDS011;26936;50.524;8.684;2023-08-17T16:25:28;1.92;;;1.23;;
41201;SDS011;26936;50.524;8.684;2023-08-17T16:27:54;2.85;;;1.05;;
41201;SDS011;26936;50.524;8.684;2023-08-17T16:30:19;3.97;;;1.60;;
41201;SDS011;26936;50.524;8.684;2023-08-17T16:32:45;2.07;;;1.30;;
41201;SDS011;26936;50.524;8.684;2023-08-17T16:35:10;2.93;;;1.33;;
41201;SDS011;26936;50.524;8.684;2023-08-17T16:37:35;2.17;;;1.20;;
41201;SDS011;26936;50.524;8.684;2023-08-17T16:40:01;3.10;;;1.33;;
41201;SDS011;26936;50.524;8.684;2023-08-17T16:42:28;2.60;;;1.40;;
41201;SDS011;26936;50.524;8.684;2023-08-17T16:44:53;1.35;;;1.20;;
41201;SDS011;26936;50.524;8.684;2023-08-17T16:47:18;2.07;;;1.40;;
41201;SDS011;26936;50.524;8.684;2023-08-17T16:49:45;2.03;;;1.42;;
41201;SDS011;26936;50.524;8.684;2023-08-17T16:52:10;1.50;;;1.20;;
41201;SDS011;26936;50.524;8.684;2023-08-17T16:54:35;1.67;;;1.25;;
41201;SDS011;26936;50.524;8.684;2023-08-17T16:57:01;1.77;;;1.23;;
41201;SDS011;26936;50.524;8.684;2023-08-17T16:59:26;2.47;;;1.20;;
41201;SDS011;26936;50.524;8.684;2023-08-17T17:01:52;2.42;;;1.30;;
41201;SDS011;26936;50.524;8.684;2023-08-17T17:04:18;1.10;;;0.98;;
41201;SDS011;26936;50.524;8.684;2023-08-17T17:06:44;2.33;;;1.23;;
41201;SDS011;26936;50.524;8.684;2023-08-17T17:09:09;2.53;;;1.20;;
41201;SDS011;26936;50.524;8.684;2023-08-17T17:11:34;1.77;;;1.30;;